Time;durP1;ratioP1;P1;durP2;ratioP2;P2;SDS_P1;SDS_P2;PMS_P1;PMS_P2;Temp;Humidity;BMP_temperature;BMP_pressure;BME280_temperature;BME280_humidity;BME280_pressure;Samples;Min_cycle;Max_cycle;Signal;HPM_P1;HPM_P2
2024/04/08 00:00:27;;;;;;;1.50;0.83;;;24.60;65.90;;;;;;5035489;28;20575;-88
2024/04/08 00:02:53;;;;;;;1.80;0.90;;;24.60;65.90;;;;;;5035658;28;20569;-88
2024/04/08 00:05:20;;;;;;;1.80;1.00;;;24.60;65.90;;;;;;5035362;28;20557;-88
2024/04/08 00:07:47;;;;;;;1.70;0.90;;;24.60;66.00;;;;;;5034564;28;20287;-88
2024/04/08 00:10:14;;;;;;;2.00;1.20;;;24.60;66.00;;;;;;5035590;28;20822;-88
2024/04/08 00:12:40;;;;;;;2.30;1.00;;;24.60;66.00;;;;;;5035592;28;20438;-88
2024/04/08 00:15:08;;;;;;;1.60;1.00;;;24.60;66.00;;;;;;5035777;28;20458;-93
2024/04/08 00:17:36;;;;;;;1.60;1.00;;;24.60;66.00;;;;;;5035647;28;20811;-87
2024/04/08 00:20:04;;;;;;;1.90;1.10;;;24.70;66.20;;;;;;5035556;28;20438;-88
2024/04/08 00:22:30;;;;;;;1.80;1.07;;;24.60;66.10;;;;;;5034442;28;20509;-88
2024/04/08 00:24:57;;;;;;;1.70;1.00;;;24.60;66.00;;;;;;5035192;28;20450;-88
2024/04/08 00:27:23;;;;;;;1.80;1.20;;;24.60;66.10;;;;;;5034947;28;20279;-89
2024/04/08 00:29:51;;;;;;;3.73;1.13;;;24.50;65.90;;;;;;5035066;28;20545;-92
2024/04/08 00:32:17;;;;;;;1.80;1.03;;;24.50;65.90;;;;;;5035475;28;20210;-87
2024/04/08 00:34:45;;;;;;;1.50;0.80;;;24.50;66.00;;;;;;5034963;28;20482;-88
2024/04/08 00:37:11;;;;;;;1.57;1.00;;;24.50;66.00;;;;;;5035113;28;20194;-88
2024/04/08 00:39:37;;;;;;;1.53;0.87;;;24.50;66.00;;;;;;5034938;28;20443;-88
2024/04/08 00:42:03;;;;;;;2.73;1.07;;;24.60;66.10;;;;;;5034718;28;20207;-88
2024/04/08 00:44:30;;;;;;;2.97;0.90;;;24.50;66.00;;;;;;5037110;28;20535;-88
2024/04/08 00:46:59;;;;;;;1.70;1.00;;;24.50;66.00;;;;;;5037111;28;20442;-88
2024/04/08 00:49:28;;;;;;;2.73;1.20;;;24.50;66.00;;;;;;5035062;28;20461;-88
2024/04/08 00:51:57;;;;;;;2.23;0.90;;;24.50;66.10;;;;;;5035006;28;20452;-88
2024/04/08 00:54:26;;;;;;;1.60;0.80;;;24.50;65.90;;;;;;5035520;28;20450;-88
2024/04/08 00:56:55;;;;;;;2.27;1.30;;;24.50;66.00;;;;;;5034813;28;20442;-89
2024/04/08 00:59:23;;;;;;;1.70;0.90;;;24.50;65.90;;;;;;5034491;28;20443;-88
2024/04/08 01:01:49;;;;;;;2.03;1.20;;;24.50;66.10;;;;;;5034943;28;20446;-88
2024/04/08 01:04:16;;;;;;;2.07;0.90;;;24.50;66.00;;;;;;5035092;28;20820;-94
2024/04/08 01:06:42;;;;;;;1.60;0.90;;;24.50;66.00;;;;;;5034817;28;20890;-94
2024/04/08 01:09:11;;;;;;;1.80;0.90;;;24.50;66.10;;;;;;5034327;28;20438;-87
2024/04/08 01:11:37;;;;;;;2.20;0.97;;;24.60;66.20;;;;;;5034151;28;20231;-88
2024/04/08 01:14:03;;;;;;;1.80;0.90;;;24.50;66.10;;;;;;5034584;28;20517;-88
2024/04/08 01:16:30;;;;;;;1.60;0.90;;;24.50;66.10;;;;;;5034608;28;20210;-88
2024/04/08 01:18:57;;;;;;;1.90;0.97;;;24.50;66.20;;;;;;5033726;28;20446;-88
2024/04/08 01:21:23;;;;;;;2.10;1.23;;;24.50;66.10;;;;;;5034710;28;20458;-89
2024/04/08 01:23:52;;;;;;;1.70;1.23;;;24.50;66.10;;;;;;5034532;28;20866;-91
2024/04/08 01:26:18;;;;;;;1.70;1.00;;;24.50;66.00;;;;;;5034687;28;20202;-88
2024/04/08 01:28:46;;;;;;;1.63;1.00;;;24.50;66.10;;;;;;5034830;28;20533;-89
2024/04/08 01:31:14;;;;;;;1.70;1.00;;;24.60;67.10;;;;;;5034379;28;20472;-88
2024/04/08 01:33:42;;;;;;;1.90;1.00;;;24.50;66.10;;;;;;5034363;28;20446;-93
2024/04/08 01:36:11;;;;;;;1.50;0.87;;;24.50;66.10;;;;;;5033988;28;20470;-87
2024/04/08 01:38:39;;;;;;;3.30;1.47;;;24.50;66.20;;;;;;5034528;28;20499;-87
2024/04/08 01:41:06;;;;;;;2.10;1.20;;;24.50;66.20;;;;;;5034143;28;20446;-87
2024/04/08 01:43:33;;;;;;;1.50;0.90;;;24.50;66.10;;;;;;5034456;28;20496;-88
2024/04/08 01:45:59;;;;;;;1.83;0.80;;;24.50;66.10;;;;;;5034870;28;20442;-88
2024/04/08 01:48:26;;;;;;;1.70;1.00;;;24.50;66.20;;;;;;5034460;28;21052;-88
2024/04/08 01:50:52;;;;;;;2.43;1.20;;;24.40;66.00;;;;;;5035780;28;20442;-88
2024/04/08 01:53:18;;;;;;;1.50;0.80;;;24.50;66.10;;;;;;5056938;28;20458;-87
2024/04/08 01:55:44;;;;;;;1.60;1.00;;;24.50;66.20;;;;;;5053732;28;20202;-87
2024/04/08 01:58:12;;;;;;;2.90;1.07;;;24.50;66.00;;;;;;5052715;28;20454;-87
2024/04/08 02:00:38;;;;;;;1.60;1.00;;;24.40;66.00;;;;;;5034568;28;20286;-86
2024/04/08 02:03:05;;;;;;;1.60;0.97;;;24.40;66.10;;;;;;5034077;28;20569;-87
2024/04/08 02:05:31;;;;;;;1.60;0.90;;;24.40;66.10;;;;;;5034166;28;20442;-87
2024/04/08 02:07:58;;;;;;;2.17;0.90;;;24.40;66.20;;;;;;5033717;28;20446;-87
2024/04/08 02:10:23;;;;;;;1.67;0.80;;;24.40;66.10;;;;;;5034518;28;20217;-87
2024/04/08 02:12:50;;;;;;;1.50;0.87;;;24.40;66.00;;;;;;5034482;28;20533;-87
2024/04/08 02:15:17;;;;;;;1.60;0.90;;;24.40;66.20;;;;;;5035068;28;20215;-87
2024/04/08 02:17:44;;;;;;;1.60;0.90;;;24.60;66.40;;;;;;5034427;28;20446;-88
2024/04/08 02:20:10;;;;;;;2.17;1.00;;;24.50;66.30;;;;;;5035692;28;20797;-87
2024/04/08 02:22:37;;;;;;;1.70;1.00;;;24.40;66.20;;;;;;5042599;28;20423;-88
2024/04/08 02:25:03;;;;;;;1.83;1.00;;;24.40;66.10;;;;;;5057624;28;20459;-88
2024/04/08 02:27:30;;;;;;;4.27;0.90;;;24.40;66.10;;;;;;5055379;28;20442;-88
2024/04/08 02:29:57;;;;;;;1.60;0.90;;;24.40;66.20;;;;;;5033840;28;20790;-88
2024/04/08 02:32:25;;;;;;;4.43;1.03;;;24.40;66.10;;;;;;5035996;28;20805;-88
2024/04/08 02:34:51;;;;;;;1.60;0.90;;;24.40;66.20;;;;;;5037058;28;20476;-87
2024/04/08 02:37:17;;;;;;;1.90;1.10;;;24.40;66.20;;;;;;5037200;28;20878;-88
2024/04/08 02:39:43;;;;;;;2.33;0.90;;;24.40;66.30;;;;;;5037190;28;20710;-93
2024/04/08 02:42:10;;;;;;;1.60;0.97;;;24.50;66.30;;;;;;5037756;28;20525;-86
2024/04/08 02:44:36;;;;;;;1.70;0.97;;;24.40;66.30;;;;;;5037016;28;20238;-88
2024/04/08 02:47:03;;;;;;;2.20;1.10;;;24.40;66.20;;;;;;5036864;28;20442;-87
2024/04/08 02:49:32;;;;;;;1.60;0.90;;;24.40;66.20;;;;;;5036883;28;20450;-87
2024/04/08 02:51:59;;;;;;;1.53;0.93;;;24.40;66.30;;;;;;5037381;28;20446;-87
2024/04/08 02:54:25;;;;;;;2.00;0.90;;;24.40;66.20;;;;;;5036897;28;20450;-87
2024/04/08 02:56:52;;;;;;;2.57;1.00;;;24.40;66.30;;;;;;5037155;28;20446;-87
2024/04/08 02:59:17;;;;;;;2.30;0.90;;;24.40;66.20;;;;;;5036778;28;20557;-87
2024/04/08 03:01:44;;;;;;;2.73;1.00;;;24.40;66.50;;;;;;5037011;28;20530;-86
2024/04/08 03:04:10;;;;;;;1.80;1.00;;;24.40;66.30;;;;;;5036996;28;20237;-87
2024/04/08 03:06:38;;;;;;;1.93;0.90;;;24.40;66.20;;;;;;5036583;28;20442;-87
2024/04/08 03:09:05;;;;;;;1.80;1.20;;;24.40;66.30;;;;;;5036863;28;20199;-87
2024/04/08 03:11:32;;;;;;;1.77;1.00;;;24.40;66.30;;;;;;5036697;28;20442;-87
2024/04/08 03:13:58;;;;;;;1.70;1.00;;;24.40;66.30;;;;;;5036172;28;20458;-87
2024/04/08 03:16:25;;;;;;;1.63;0.90;;;24.50;66.50;;;;;;5036583;28;20857;-87
2024/04/08 03:18:51;;;;;;;2.20;1.03;;;24.40;66.30;;;;;;5036684;28;20441;-87
2024/04/08 03:21:17;;;;;;;1.70;0.90;;;24.50;66.40;;;;;;5036453;28;20949;-86
2024/04/08 03:23:45;;;;;;;1.53;0.90;;;24.30;66.20;;;;;;5036208;28;20867;-87
2024/04/08 03:26:14;;;;;;;1.70;1.10;;;24.40;66.40;;;;;;5036012;28;20525;-87
2024/04/08 03:28:40;;;;;;;1.90;0.90;;;24.40;66.40;;;;;;5036226;28;20446;-87
2024/04/08 03:31:07;;;;;;;2.80;0.90;;;24.40;66.30;;;;;;5036313;28;20795;-85
2024/04/08 03:33:34;;;;;;;1.50;0.93;;;24.30;66.20;;;;;;5036466;28;20449;-87
2024/04/08 03:36:01;;;;;;;1.90;1.20;;;24.30;66.20;;;;;;5036007;28;21019;-88
2024/04/08 03:38:28;;;;;;;1.60;0.90;;;24.40;66.30;;;;;;5036099;28;20489;-87
2024/04/08 03:41:01;;;;;;;1.80;1.07;;;24.30;66.20;;;;;;5039186;28;20442;-87
2024/04/08 03:43:27;;;;;;;2.20;1.20;;;24.50;66.50;;;;;;5039613;28;20493;-87
2024/04/08 03:45:55;;;;;;;2.00;1.00;;;24.30;66.20;;;;;;5035412;28;20446;-87
2024/04/08 03:48:22;;;;;;;1.63;0.90;;;24.30;66.20;;;;;;5035898;28;20937;-87
2024/04/08 03:50:47;;;;;;;1.60;0.90;;;24.30;66.30;;;;;;5035565;28;20446;-87
2024/04/08 03:53:14;;;;;;;2.20;0.83;;;24.30;66.30;;;;;;5035700;28;20452;-87
2024/04/08 03:55:42;;;;;;;1.57;1.00;;;24.30;66.20;;;;;;5036690;28;20287;-87
2024/04/08 03:58:11;;;;;;;1.53;0.80;;;24.30;66.30;;;;;;5036591;28;20470;-90
2024/04/08 04:00:37;;;;;;;1.70;0.97;;;24.30;66.30;;;;;;5037499;28;20452;-86
2024/04/08 04:03:04;;;;;;;1.50;0.80;;;24.30;66.30;;;;;;5037472;28;20561;-86
2024/04/08 04:05:29;;;;;;;1.50;0.80;;;24.30;66.30;;;;;;5038808;28;20191;-87
2024/04/08 04:07:57;;;;;;;3.10;1.20;;;24.30;67.10;;;;;;5056121;28;20450;-88
2024/04/08 04:10:23;;;;;;;1.60;1.00;;;24.30;66.20;;;;;;5056204;28;20199;-87
2024/04/08 04:12:51;;;;;;;1.83;1.00;;;24.30;66.20;;;;;;5057825;28;20499;-87
2024/04/08 04:15:18;;;;;;;1.60;1.00;;;24.30;66.20;;;;;;5058121;28;20218;-88
2024/04/08 04:17:45;;;;;;;1.90;1.30;;;24.30;66.30;;;;;;5056174;28;20508;-87
2024/04/08 04:20:14;;;;;;;2.10;1.10;;;24.30;66.20;;;;;;5057712;28;20460;-86
2024/04/08 04:22:41;;;;;;;1.60;1.13;;;24.30;66.30;;;;;;5057837;28;20446;-87
2024/04/08 04:25:08;;;;;;;1.67;0.90;;;24.40;66.40;;;;;;5059355;28;20495;-86
2024/04/08 04:27:36;;;;;;;1.90;1.00;;;24.30;66.30;;;;;;5061929;28;20446;-86
2024/04/08 04:30:01;;;;;;;1.80;1.00;;;24.30;66.20;;;;;;5061682;28;20438;-87
2024/04/08 04:32:29;;;;;;;1.80;1.00;;;24.30;66.40;;;;;;5057301;28;20536;-88
2024/04/08 04:34:55;;;;;;;3.43;1.17;;;24.20;66.20;;;;;;5059209;28;20230;-87
2024/04/08 04:37:23;;;;;;;2.33;1.20;;;24.20;66.30;;;;;;5060381;28;20442;-87
2024/04/08 04:39:49;;;;;;;1.73;0.80;;;24.20;66.30;;;;;;5060655;28;20460;-87
2024/04/08 04:42:16;;;;;;;1.70;0.80;;;24.30;66.30;;;;;;5057938;28;20965;-87
2024/04/08 04:44:41;;;;;;;2.57;1.10;;;24.20;66.40;;;;;;5060378;28;20487;-87
2024/04/08 04:47:08;;;;;;;2.73;1.00;;;24.20;66.30;;;;;;5056145;28;20536;-87
2024/04/08 04:49:35;;;;;;;2.47;0.90;;;24.20;66.30;;;;;;5055377;28;20660;-87
2024/04/08 04:52:02;;;;;;;4.03;1.10;;;24.20;66.30;;;;;;5056359;28;20452;-87
2024/04/08 04:54:29;;;;;;;1.50;0.90;;;24.20;66.30;;;;;;5054685;28;20469;-87
2024/04/08 04:56:56;;;;;;;1.90;1.00;;;24.30;66.40;;;;;;5054688;28;20987;-87
2024/04/08 04:59:22;;;;;;;1.87;0.80;;;24.30;66.40;;;;;;5054956;28;20440;-87
2024/04/08 05:01:49;;;;;;;1.60;0.90;;;24.20;66.30;;;;;;5054658;28;21228;-87
2024/04/08 05:04:15;;;;;;;2.27;0.90;;;24.20;66.30;;;;;;5055817;28;20489;-88
2024/04/08 05:06:43;;;;;;;1.50;0.80;;;24.20;66.60;;;;;;5053705;28;20454;-88
2024/04/08 05:09:09;;;;;;;1.73;0.87;;;24.20;66.40;;;;;;5047339;28;20286;-87
2024/04/08 05:11:36;;;;;;;1.60;0.80;;;24.20;66.30;;;;;;5054258;28;20556;-87
2024/04/08 05:14:02;;;;;;;1.60;1.10;;;24.20;66.30;;;;;;5054406;28;20214;-88
2024/04/08 05:16:29;;;;;;;1.90;1.10;;;24.20;66.40;;;;;;5054404;28;20457;-91
2024/04/08 05:18:55;;;;;;;1.90;1.00;;;24.20;66.40;;;;;;5054194;28;20914;-86
2024/04/08 05:21:22;;;;;;;1.63;1.10;;;24.20;66.20;;;;;;5054330;28;20452;-86
2024/04/08 05:23:49;;;;;;;1.87;1.20;;;24.20;66.40;;;;;;5054246;28;20218;-88
2024/04/08 05:26:17;;;;;;;2.17;0.90;;;24.20;66.40;;;;;;5054928;28;20441;-89
2024/04/08 05:28:42;;;;;;;7.50;2.00;;;24.30;66.60;;;;;;5054425;28;20437;-87
2024/04/08 05:31:09;;;;;;;2.97;1.20;;;24.20;66.80;;;;;;5054915;28;20457;-87
2024/04/08 05:33:35;;;;;;;2.67;1.33;;;24.20;66.70;;;;;;5053867;28;20245;-88
2024/04/08 05:36:02;;;;;;;2.20;1.40;;;24.10;66.40;;;;;;5064418;28;20614;-87
2024/04/08 05:38:28;;;;;;;1.67;1.07;;;24.10;66.40;;;;;;5076584;28;20179;-88
2024/04/08 05:41:01;;;;;;;2.67;1.10;;;24.20;66.70;;;;;;5070152;28;20499;-87
2024/04/08 05:43:26;;;;;;;1.60;1.00;;;24.20;66.80;;;;;;5053577;28;20646;-88
2024/04/08 05:45:53;;;;;;;3.63;1.63;;;24.20;66.90;;;;;;5053300;28;20455;-88
2024/04/08 05:48:19;;;;;;;1.80;1.00;;;24.30;67.10;;;;;;5053215;28;20190;-88
2024/04/08 05:50:47;;;;;;;7.27;1.40;;;24.20;67.00;;;;;;5053260;28;20446;-88
2024/04/08 05:53:13;;;;;;;1.70;0.93;;;24.20;67.00;;;;;;5053188;28;20293;-88
2024/04/08 05:55:40;;;;;;;4.93;1.50;;;24.20;67.00;;;;;;5053157;28;20540;-94
2024/04/08 05:58:08;;;;;;;2.23;1.13;;;24.20;67.00;;;;;;5053779;28;20197;-87
2024/04/08 06:00:36;;;;;;;2.43;1.20;;;24.20;66.90;;;;;;5053763;28;20437;-89
2024/04/08 06:03:02;;;;;;;2.73;1.33;;;24.30;67.10;;;;;;5053620;28;20438;-87
2024/04/08 06:05:29;;;;;;;1.80;1.10;;;24.30;67.10;;;;;;5053493;28;20477;-88
2024/04/08 06:07:55;;;;;;;1.53;0.90;;;24.30;67.20;;;;;;5057153;28;20955;-87
2024/04/08 06:10:23;;;;;;;4.87;1.30;;;24.30;67.10;;;;;;5057572;28;20445;-88
2024/04/08 06:12:49;;;;;;;2.60;1.00;;;24.30;68.00;;;;;;5057877;28;20201;-87
2024/04/08 06:15:17;;;;;;;2.00;0.90;;;24.30;67.10;;;;;;5058650;28;20437;-93
2024/04/08 06:17:43;;;;;;;2.23;1.27;;;24.40;67.20;;;;;;5058496;28;20191;-86
2024/04/08 06:20:10;;;;;;;2.80;0.90;;;24.40;67.10;;;;;;5058266;28;20441;-87
2024/04/08 06:22:36;;;;;;;2.00;0.97;;;24.40;66.80;;;;;;5057802;28;20532;-86
2024/04/08 06:25:04;;;;;;;3.00;1.37;;;24.40;66.80;;;;;;5057868;28;20833;-88
2024/04/08 06:27:29;;;;;;;2.60;1.53;;;24.50;66.80;;;;;;5057586;28;20442;-89
2024/04/08 06:29:56;;;;;;;2.13;1.20;;;24.50;66.60;;;;;;5057899;28;20776;-89
2024/04/08 06:32:24;;;;;;;4.93;1.30;;;24.50;66.50;;;;;;5058450;28;20440;-89
2024/04/08 06:34:51;;;;;;;2.83;1.20;;;24.60;66.60;;;;;;5057368;28;20832;-89
2024/04/08 06:37:16;;;;;;;6.80;1.87;;;24.50;66.50;;;;;;5057158;28;20531;-89
2024/04/08 06:39:43;;;;;;;4.53;1.50;;;24.50;66.60;;;;;;5065604;28;20476;-89
2024/04/08 06:42:16;;;;;;;3.03;1.47;;;24.50;66.50;;;;;;5065687;28;20453;-86
2024/04/08 06:44:47;;;;;;;7.50;1.40;;;24.60;66.80;;;;;;5058443;28;20489;-85
2024/04/08 06:47:13;;;;;;;8.77;1.70;;;24.50;66.70;;;;;;5059004;28;20788;-86
2024/04/08 06:49:41;;;;;;;3.43;1.00;;;24.50;66.70;;;;;;5057428;28;20445;-86
2024/04/08 06:52:06;;;;;;;2.63;1.03;;;24.50;66.60;;;;;;5057238;28;20714;-85
2024/04/08 06:54:33;;;;;;;2.90;1.40;;;24.50;66.70;;;;;;5056858;28;20540;-86
2024/04/08 06:56:59;;;;;;;6.10;1.70;;;24.50;66.70;;;;;;5057185;28;20203;-87
2024/04/08 06:59:27;;;;;;;10.70;2.40;;;24.50;66.50;;;;;;5054877;28;20445;-86
2024/04/08 07:01:53;;;;;;;7.40;3.60;;;24.50;66.50;;;;;;5042004;28;20626;-87
2024/04/08 07:04:21;;;;;;;9.23;4.30;;;24.60;66.60;;;;;;5056411;28;20576;-85
2024/04/08 07:06:50;;;;;;;7.33;3.67;;;24.50;66.50;;;;;;5048680;28;20195;-92
2024/04/08 07:09:16;;;;;;;7.63;3.13;;;24.60;66.60;;;;;;5057442;28;20539;-88
2024/04/08 07:11:43;;;;;;;9.60;4.00;;;24.50;66.50;;;;;;5045745;28;20820;-84
2024/04/08 07:14:09;;;;;;;10.00;4.10;;;24.60;66.60;;;;;;5056136;28;21257;-84
2024/04/08 07:16:35;;;;;;;9.00;4.20;;;24.60;66.60;;;;;;5055959;28;20433;-86
2024/04/08 07:19:02;;;;;;;7.83;2.97;;;24.60;66.60;;;;;;5055966;28;20979;-85
2024/04/08 07:21:28;;;;;;;3.43;1.93;;;24.70;66.20;;;;;;5038339;28;20199;-85
2024/04/08 07:27:31;;;;;;;9.97;3.60;;;24.70;66.00;;;;;;4979765;28;20224;-90
2024/04/08 07:29:57;;;;;;;7.60;2.83;;;24.60;66.40;;;;;;5034559;28;20481;-87
2024/04/08 07:32:29;;;;;;;10.63;2.80;;;24.60;66.40;;;;;;5055637;23;20520;-88
2024/04/08 07:35:21;;;;;;;;;;;;;;;;;;;;;
2024/04/08 07:37:56;;;;;;;11.03;3.70;;;24.70;66.90;;;;;;5048294;28;20448;-95
2024/04/08 07:40:59;;;;;;;12.27;3.77;;;24.80;67.00;;;;;;5078068;28;20448;-95
2024/04/08 07:49:05;;;;;;;10.33;2.30;;;24.70;66.70;;;;;;5496880;22;20477;-90
2024/04/08 07:51:33;;;;;;;27.60;6.80;;;24.70;66.60;;;;;;5056716;28;20438;-93
2024/04/08 07:54:00;;;;;;;33.10;12.67;;;24.70;66.60;;;;;;5071810;28;20444;-90
2024/04/08 07:56:26;;;;;;;39.00;11.73;;;24.80;68.10;;;;;;5076962;28;20432;-89
2024/04/08 07:58:54;;;;;;;32.30;11.23;;;24.80;67.90;;;;;;5076574;28;20447;-89
2024/04/08 08:01:20;;;;;;;38.43;13.77;;;24.90;68.50;;;;;;5076339;28;20536;-89
2024/04/08 08:03:47;;;;;;;36.07;13.13;;;24.90;69.30;;;;;;5076279;28;20897;-89
2024/04/08 08:06:14;;;;;;;43.20;15.13;;;24.90;69.30;;;;;;5075784;28;20536;-89
2024/04/08 08:08:41;;;;;;;55.87;17.93;;;24.90;69.70;;;;;;5075744;28;20459;-89
2024/04/08 08:11:08;;;;;;;49.73;18.00;;;25.00;70.10;;;;;;5075833;28;20539;-89
2024/04/08 08:13:35;;;;;;;54.07;16.93;;;25.00;70.60;;;;;;5075690;28;20471;-91
2024/04/08 08:16:02;;;;;;;45.47;14.87;;;25.00;70.80;;;;;;5057725;28;20444;-89
2024/04/08 08:18:31;;;;;;;39.20;14.10;;;25.00;70.60;;;;;;5081917;28;20443;-91
2024/04/08 08:21:02;;;;;;;33.90;12.73;;;25.00;69.60;;;;;;5081979;28;20471;-91
2024/04/08 08:23:30;;;;;;;43.10;14.27;;;25.00;70.50;;;;;;5075975;28;20440;-90
2024/04/08 08:25:58;;;;;;;44.87;14.87;;;25.10;70.20;;;;;;5076757;28;20925;-90
2024/04/08 08:28:25;;;;;;;33.27;11.80;;;25.10;70.20;;;;;;5062638;28;20446;-90
2024/04/08 08:30:52;;;;;;;32.80;12.23;;;25.10;69.30;;;;;;5035396;28;20754;-90
2024/04/08 08:33:20;;;;;;;35.70;13.10;;;25.00;69.90;;;;;;5039044;28;20520;-91
2024/04/08 08:35:47;;;;;;;23.57;10.47;;;25.20;69.90;;;;;;5035966;28;20449;-91
2024/04/08 08:38:13;;;;;;;38.27;11.53;;;25.20;69.40;;;;;;5036045;28;20449;-90
2024/04/08 08:40:44;;;;;;;27.70;10.70;;;25.20;69.80;;;;;;5035857;28;20933;-90
2024/04/08 08:43:11;;;;;;;25.93;10.53;;;25.20;69.50;;;;;;5035980;28;20222;-90
2024/04/08 08:45:41;;;;;;;26.63;10.13;;;25.30;69.60;;;;;;5035587;28;20535;-92
2024/04/08 08:48:07;;;;;;;26.43;9.83;;;25.30;69.40;;;;;;5036147;28;20504;-90
2024/04/08 08:50:35;;;;;;;29.13;10.40;;;25.30;69.20;;;;;;5058739;28;20469;-89
2024/04/08 08:53:02;;;;;;;26.10;9.77;;;25.40;69.20;;;;;;5058941;28;20438;-90
2024/04/08 08:55:30;;;;;;;23.10;8.87;;;25.40;68.90;;;;;;5041093;28;20438;-89
2024/04/08 08:57:59;;;;;;;24.57;9.27;;;25.40;68.80;;;;;;5035544;28;20442;-89
2024/04/08 09:00:26;;;;;;;22.57;8.60;;;25.60;69.10;;;;;;5035009;28;20473;-89
2024/04/08 09:02:52;;;;;;;20.73;7.17;;;25.50;68.70;;;;;;5034868;28;20449;-90
2024/04/08 09:05:18;;;;;;;20.03;8.13;;;25.50;68.70;;;;;;5036281;28;20486;-90
2024/04/08 09:07:44;;;;;;;20.90;8.53;;;25.50;68.60;;;;;;5035114;28;20445;-90
2024/04/08 09:10:11;;;;;;;21.13;7.87;;;25.60;68.60;;;;;;5035257;28;20454;-89
2024/04/08 09:12:41;;;;;;;24.80;9.10;;;25.60;68.60;;;;;;5034884;28;20226;-90
2024/04/08 09:15:11;;;;;;;27.17;8.33;;;25.60;68.50;;;;;;5035120;28;20430;-94
2024/04/08 09:17:37;;;;;;;21.17;8.60;;;25.60;68.50;;;;;;5035832;28;20430;-95
2024/04/08 09:20:05;;;;;;;20.00;6.57;;;25.60;68.50;;;;;;5035133;28;20955;-90
2024/04/08 09:22:31;;;;;;;19.50;8.67;;;25.60;68.50;;;;;;5043614;28;20241;-89
2024/04/08 09:24:58;;;;;;;17.50;7.60;;;25.60;68.50;;;;;;5054333;28;20485;-89
2024/04/08 09:27:24;;;;;;;19.40;7.60;;;25.70;68.60;;;;;;5055040;28;20536;-89
2024/04/08 09:29:51;;;;;;;13.57;5.80;;;25.80;68.70;;;;;;5054620;28;20540;-90
2024/04/08 09:32:19;;;;;;;21.70;7.40;;;25.70;68.50;;;;;;5054566;28;20195;-90
2024/04/08 09:34:46;;;;;;;19.63;7.30;;;25.80;68.50;;;;;;5054790;28;20446;-89
2024/04/08 09:37:13;;;;;;;18.53;7.10;;;25.80;68.40;;;;;;5054575;28;20955;-90
2024/04/08 09:39:41;;;;;;;18.07;7.07;;;25.80;68.50;;;;;;5054243;28;20437;-90
2024/04/08 09:42:10;;;;;;;18.03;6.23;;;25.90;68.60;;;;;;5054938;28;20475;-89
2024/04/08 09:44:37;;;;;;;13.40;5.83;;;25.80;68.40;;;;;;5054177;28;21025;-89
2024/04/08 09:47:05;;;;;;;17.47;6.77;;;25.80;68.40;;;;;;5054194;28;20955;-89
2024/04/08 09:49:34;;;;;;;17.60;6.43;;;25.80;68.40;;;;;;5054443;28;20589;-89
2024/04/08 09:52:02;;;;;;;16.20;7.57;;;25.80;68.40;;;;;;5053957;28;20445;-90
2024/04/08 09:54:28;;;;;;;16.20;6.10;;;25.90;68.50;;;;;;5054542;28;20446;-90
2024/04/08 09:57:01;;;;;;;18.70;7.07;;;25.90;68.50;;;;;;5054492;28;20459;-90
2024/04/08 09:59:29;;;;;;;15.03;5.50;;;25.90;68.60;;;;;;5054405;28;20194;-89
2024/04/08 10:01:58;;;;;;;11.73;4.77;;;26.00;68.60;;;;;;5054175;28;20954;-90
2024/04/08 10:04:26;;;;;;;18.03;6.00;;;26.00;68.60;;;;;;5053973;28;20487;-90
2024/04/08 10:06:56;;;;;;;18.80;6.80;;;25.90;68.60;;;;;;5054394;28;20452;-90
2024/04/08 10:09:24;;;;;;;17.87;6.67;;;26.00;68.50;;;;;;5054389;28;20441;-91
2024/04/08 10:11:52;;;;;;;13.63;5.70;;;26.00;68.50;;;;;;5054108;28;20531;-90
2024/04/08 10:14:19;;;;;;;12.20;4.90;;;26.00;68.50;;;;;;5054205;28;21037;-91
2024/04/08 10:16:48;;;;;;;12.03;5.33;;;26.00;68.70;;;;;;5054012;28;20448;-90
2024/04/08 10:19:14;;;;;;;12.30;6.07;;;26.00;68.80;;;;;;5054026;28;20448;-90
2024/04/08 10:21:41;;;;;;;13.80;5.40;;;26.10;68.70;;;;;;5054214;28;20453;-91
2024/04/08 10:24:27;;;;;;;12.40;4.97;;;26.10;68.70;;;;;;5054264;28;20658;-90
2024/04/08 10:26:59;;;;;;;13.97;4.70;;;26.20;68.80;;;;;;5053636;28;20445;-90
2024/04/08 10:29:25;;;;;;;8.47;4.60;;;26.20;68.50;;;;;;5055252;28;20487;-91
2024/04/08 10:31:52;;;;;;;12.43;4.40;;;26.10;68.50;;;;;;5054151;28;20525;-90
2024/04/08 10:34:19;;;;;;;7.90;4.20;;;26.20;68.60;;;;;;5054348;28;20199;-90
2024/04/08 10:36:46;;;;;;;13.43;4.53;;;26.20;68.70;;;;;;5054101;28;20451;-90
2024/04/08 10:39:16;;;;;;;10.60;4.77;;;26.30;68.70;;;;;;5053603;28;20445;-90
2024/04/08 10:41:43;;;;;;;8.83;4.33;;;26.30;68.60;;;;;;5053726;28;20467;-90
2024/04/08 10:44:09;;;;;;;10.33;4.87;;;26.20;68.50;;;;;;5053917;28;20461;-89
2024/04/08 10:46:35;;;;;;;11.57;4.43;;;26.30;68.60;;;;;;5054551;28;20444;-91
2024/04/08 10:49:05;;;;;;;14.70;4.70;;;26.30;68.60;;;;;;5054392;28;20528;-91
2024/04/08 10:51:33;;;;;;;14.00;4.70;;;26.30;68.70;;;;;;5054185;28;20441;-90
2024/04/08 10:53:58;;;;;;;8.60;4.10;;;26.40;68.70;;;;;;5057801;28;20797;-92
2024/04/08 10:56:27;;;;;;;12.87;4.00;;;26.30;68.40;;;;;;5059144;28;20463;-90
2024/04/08 10:58:58;;;;;;;11.40;4.90;;;26.30;68.40;;;;;;5078526;28;20191;-91
2024/04/08 11:01:26;;;;;;;7.50;3.70;;;26.30;68.50;;;;;;5061114;28;20453;-90
2024/04/08 11:03:52;;;;;;;10.13;4.27;;;26.30;68.60;;;;;;5058966;28;20514;-90
2024/04/08 11:06:19;;;;;;;7.80;3.73;;;26.40;68.70;;;;;;5060861;28;20481;-90
2024/04/08 11:08:44;;;;;;;6.00;2.97;;;26.30;68.40;;;;;;5059255;28;20440;-90
2024/04/08 11:11:11;;;;;;;6.97;4.30;;;26.40;68.70;;;;;;5058009;28;20816;-90
2024/04/08 11:13:38;;;;;;;7.80;3.90;;;26.50;68.70;;;;;;5074604;28;20218;-90
2024/04/08 11:16:08;;;;;;;7.93;4.20;;;26.40;68.60;;;;;;5079880;28;20445;-89
2024/04/08 11:18:36;;;;;;;10.23;3.80;;;26.40;68.50;;;;;;5080462;28;20441;-89
2024/04/08 11:21:04;;;;;;;7.10;4.00;;;26.40;68.50;;;;;;5062346;28;20434;-90
2024/04/08 11:23:30;;;;;;;6.40;3.47;;;26.40;68.50;;;;;;5058863;28;20456;-91
2024/04/08 11:25:57;;;;;;;7.57;3.80;;;26.40;68.60;;;;;;5057965;28;20487;-90
2024/04/08 11:28:23;;;;;;;7.57;3.73;;;26.40;68.70;;;;;;5057269;28;20449;-90
2024/04/08 11:30:53;;;;;;;9.00;3.33;;;26.40;68.60;;;;;;5056492;28;20450;-90
2024/04/08 11:33:19;;;;;;;8.43;3.30;;;26.40;68.60;;;;;;5057430;28;20449;-91
2024/04/08 11:35:45;;;;;;;5.80;3.37;;;26.50;68.80;;;;;;5056699;28;20450;-90
2024/04/08 11:38:15;;;;;;;8.97;3.83;;;26.40;68.60;;;;;;5057619;28;20197;-90
2024/04/08 11:40:42;;;;;;;6.43;3.00;;;26.40;68.60;;;;;;5056790;28;20445;-95
2024/04/08 11:43:08;;;;;;;9.63;3.80;;;26.40;68.50;;;;;;5057097;28;20551;-90
2024/04/08 11:45:35;;;;;;;5.37;3.43;;;26.40;68.70;;;;;;5057018;28;20580;-90
2024/04/08 11:48:03;;;;;;;5.47;3.33;;;26.40;68.70;;;;;;5056823;28;20205;-90
2024/04/08 11:50:30;;;;;;;8.10;3.50;;;26.40;68.70;;;;;;5056630;28;20504;-91
2024/04/08 11:52:56;;;;;;;7.50;3.40;;;26.40;68.70;;;;;;5056517;28;20438;-90
2024/04/08 11:55:23;;;;;;;5.00;2.63;;;26.40;68.80;;;;;;5056505;28;20528;-90
2024/04/08 11:57:48;;;;;;;4.47;3.20;;;26.30;68.70;;;;;;5056536;28;20198;-91
2024/04/08 12:00:19;;;;;;;8.63;3.73;;;26.30;68.70;;;;;;5057208;28;20441;-89
2024/04/08 12:02:45;;;;;;;8.33;3.10;;;26.40;68.90;;;;;;5056953;28;20194;-89
2024/04/08 12:05:14;;;;;;;6.33;3.20;;;26.30;68.80;;;;;;5057049;28;20485;-90
2024/04/08 12:07:40;;;;;;;5.00;2.50;;;26.30;68.80;;;;;;5063559;28;20179;-89
2024/04/08 12:10:09;;;;;;;5.03;2.93;;;26.40;68.90;;;;;;5080052;28;20441;-91
2024/04/08 12:12:35;;;;;;;9.40;3.10;;;26.30;68.70;;;;;;5079270;28;20517;-90
2024/04/08 12:15:03;;;;;;;7.80;2.80;;;26.50;69.00;;;;;;5056734;28;20968;-90
2024/04/08 12:17:29;;;;;;;6.43;3.03;;;26.40;68.90;;;;;;5056361;28;20290;-89
2024/04/08 12:19:56;;;;;;;6.43;3.00;;;26.40;69.00;;;;;;5056159;28;20880;-89
2024/04/08 12:22:23;;;;;;;6.53;2.90;;;26.40;68.90;;;;;;5056435;28;20213;-90
2024/04/08 12:24:50;;;;;;;4.40;2.60;;;26.50;68.90;;;;;;5055790;28;20477;-89
2024/04/08 12:27:16;;;;;;;5.27;2.40;;;26.40;68.90;;;;;;5055801;28;20437;-95
2024/04/08 12:29:43;;;;;;;4.43;2.57;;;26.40;68.90;;;;;;5055477;28;20532;-89
2024/04/08 12:32:10;;;;;;;4.90;3.10;;;26.50;68.90;;;;;;5056073;28;20765;-89
2024/04/08 12:34:37;;;;;;;3.70;2.63;;;26.30;68.80;;;;;;5056431;28;20445;-89
2024/04/08 12:37:03;;;;;;;5.53;2.90;;;26.50;69.00;;;;;;5056838;28;20528;-89
2024/04/08 12:39:32;;;;;;;4.80;2.50;;;26.30;68.90;;;;;;5055773;28;20468;-89
2024/04/08 12:41:58;;;;;;;5.27;2.73;;;26.40;69.90;;;;;;5055679;28;20437;-90
2024/04/08 12:44:25;;;;;;;5.50;2.30;;;26.30;69.00;;;;;;5059170;28;20473;-89
2024/04/08 12:48:14;;;;;;;5.97;2.80;;;26.40;68.00;;;;;;5509723;25;20647;-90
2024/04/08 12:50:41;;;;;;;4.73;2.37;;;26.40;68.90;;;;;;5510392;25;20980;-90
2024/04/08 12:53:10;;;;;;;5.70;2.57;;;26.40;68.80;;;;;;5510255;25;20450;-95
2024/04/08 12:55:38;;;;;;;7.30;3.07;;;26.40;68.80;;;;;;5509858;25;20572;-90